createdAt,value
2019-02-27T00:01:34.132Z,2.20
2019-02-27T00:04:04.256Z,3.37
2019-02-27T00:06:32.331Z,2.33
2019-02-27T00:09:01.214Z,2.40
2019-02-27T00:11:31.240Z,2.60
2019-02-27T00:13:59.226Z,2.50
2019-02-27T00:16:29.287Z,2.10
2019-02-27T00:18:58.916Z,2.60
2019-02-27T00:21:29.781Z,2.93
2019-02-27T00:24:00.323Z,2.17
2019-02-27T00:26:31.479Z,1.73
2019-02-27T00:28:59.655Z,1.70
2019-02-27T00:31:28.103Z,2.00
2019-02-27T00:33:59.447Z,1.90
2019-02-27T00:36:29.195Z,1.30
2019-02-27T00:38:57.933Z,1.87
2019-02-27T00:41:26.664Z,2.10
2019-02-27T00:43:54.743Z,1.87
2019-02-27T00:46:26.412Z,2.57
2019-02-27T00:48:59.079Z,2.47
2019-02-27T00:51:25.355Z,2.30
2019-02-27T00:53:55.970Z,2.83
2019-02-27T00:56:24.723Z,2.90
2019-02-27T00:58:53.021Z,2.67
2019-02-27T01:01:21.670Z,2.30
2019-02-27T01:03:50.483Z,2.50
2019-02-27T01:06:18.320Z,2.20
2019-02-27T01:08:46.891Z,2.50
2019-02-27T01:11:18.129Z,2.83
2019-02-27T01:13:45.899Z,2.60
2019-02-27T01:16:16.997Z,2.27
2019-02-27T01:18:48.216Z,3.60
2019-02-27T01:21:18.929Z,2.33
2019-02-27T01:23:46.318Z,3.07
2019-02-27T01:26:14.572Z,2.33
2019-02-27T01:28:45.647Z,2.70
2019-02-27T01:31:13.691Z,2.63
2019-02-27T01:33:41.972Z,2.43
2019-02-27T01:36:10.462Z,2.80
2019-02-27T01:38:40.775Z,2.40
2019-02-27T01:41:08.948Z,2.30
2019-02-27T01:43:36.876Z,1.77
2019-02-27T01:46:07.345Z,1.83
2019-02-27T01:48:35.422Z,2.13
2019-02-27T01:51:07.080Z,2.10
2019-02-27T01:53:37.949Z,1.93
2019-02-27T01:56:05.683Z,2.43
2019-02-27T01:58:35.107Z,2.23
2019-02-27T02:01:03.395Z,1.63
2019-02-27T02:03:31.459Z,2.43
2019-02-27T02:06:00.728Z,2.30
2019-02-27T02:08:30.470Z,2.10
2019-02-27T02:11:01.397Z,2.37
2019-02-27T02:13:38.154Z,1.97
2019-02-27T02:16:26.507Z,1.87
2019-02-27T02:19:38.845Z,1.87
2019-02-27T02:22:14.198Z,1.60
2019-02-27T02:25:12.551Z,1.60
2019-02-27T02:28:03.195Z,1.50
2019-02-27T02:31:18.325Z,2.13
2019-02-27T02:34:31.510Z,1.87
2019-02-27T02:37:56.426Z,1.93
2019-02-27T02:41:14.393Z,1.37
2019-02-27T02:44:32.141Z,1.70
2019-02-27T02:47:46.687Z,1.50
2019-02-27T02:50:56.674Z,1.50
2019-02-27T02:54:03.024Z,1.50
2019-02-27T02:56:45.224Z,1.57
2019-02-27T02:59:50.243Z,1.47
2019-02-27T03:02:29.767Z,2.10
2019-02-27T03:05:38.032Z,1.67
2019-02-27T03:08:11.955Z,2.13
2019-02-27T03:11:19.097Z,2.87
2019-02-27T03:14:27.893Z,2.03
2019-02-27T03:17:54.760Z,1.80
2019-02-27T03:20:53.102Z,1.37
2019-02-27T03:23:52.228Z,1.50
2019-02-27T03:26:53.059Z,1.60
2019-02-27T03:29:58.185Z,1.37
2019-02-27T03:32:40.908Z,1.50
2019-02-27T03:35:29.382Z,1.43
2019-02-27T03:38:23.722Z,1.40
2019-02-27T03:41:22.729Z,1.33
2019-02-27T03:44:11.954Z,1.57
2019-02-27T03:47:30.557Z,1.47
2019-02-27T03:50:02.606Z,1.07
2019-02-27T03:53:17.567Z,1.73
2019-02-27T03:56:32.154Z,1.83
2019-02-27T03:59:29.187Z,1.83
2019-02-27T04:02:47.461Z,1.57
2019-02-27T04:06:05.850Z,1.67
2019-02-27T04:08:59.504Z,1.83
2019-02-27T04:11:27.806Z,2.03
2019-02-27T04:14:03.069Z,1.57
2019-02-27T04:16:30.501Z,2.07
2019-02-27T04:19:03.051Z,1.93
2019-02-27T04:21:31.482Z,2.73
2019-02-27T04:23:59.829Z,1.97
2019-02-27T04:26:27.234Z,2.13
2019-02-27T04:28:55.498Z,2.30
2019-02-27T04:31:23.845Z,2.20
2019-02-27T04:33:52.401Z,2.30
2019-02-27T04:36:20.149Z,2.70
2019-02-27T04:38:48.009Z,1.80
2019-02-27T04:41:18.182Z,1.90
2019-02-27T04:43:46.808Z,2.30
2019-02-27T04:46:15.723Z,2.40
2019-02-27T04:48:46.032Z,1.80
2019-02-27T04:51:17.237Z,2.40
2019-02-27T04:53:46.709Z,1.93
2019-02-27T04:56:15.557Z,1.60
2019-02-27T04:58:46.088Z,2.23
2019-02-27T05:01:13.833Z,2.43
2019-02-27T05:03:42.749Z,2.30
2019-02-27T05:06:14.573Z,2.30
2019-02-27T05:08:42.550Z,2.27
2019-02-27T05:11:13.970Z,2.77
2019-02-27T05:13:40.583Z,2.30
2019-02-27T05:16:13.943Z,2.10
2019-02-27T05:18:40.183Z,2.40
2019-02-27T05:21:10.561Z,2.60
2019-02-27T05:23:38.377Z,2.20
2019-02-27T05:26:06.969Z,3.30
2019-02-27T05:28:36.586Z,3.70
2019-02-27T05:31:04.756Z,3.07
2019-02-27T05:33:36.475Z,3.90
2019-02-27T05:36:05.445Z,2.53
2019-02-27T05:38:34.501Z,2.63
2019-02-27T05:41:02.938Z,2.63
2019-02-27T05:43:32.704Z,2.97
2019-02-27T05:46:02.693Z,3.20
2019-02-27T05:48:33.909Z,2.80
2019-02-27T05:51:02.148Z,3.77
2019-02-27T05:53:30.767Z,4.20
2019-02-27T05:55:59.563Z,3.40
2019-02-27T05:58:27.598Z,3.10
2019-02-27T06:00:55.237Z,3.60
2019-02-27T06:03:23.571Z,3.67
2019-02-27T06:05:52.154Z,3.77
2019-02-27T06:08:20.296Z,2.70
2019-02-27T06:10:55.125Z,3.40
2019-02-27T06:13:22.903Z,4.30
2019-02-27T06:15:50.928Z,4.33
2019-02-27T06:18:22.531Z,4.27
2019-02-27T06:20:52.129Z,4.10
2019-02-27T06:23:20.387Z,4.40
2019-02-27T06:25:49.726Z,4.60
2019-02-27T06:28:19.308Z,3.73
2019-02-27T06:30:49.378Z,4.90
2019-02-27T06:33:17.924Z,4.50
2019-02-27T06:35:49.484Z,4.23
2019-02-27T06:38:18.371Z,3.97
2019-02-27T06:40:46.411Z,3.60
2019-02-27T06:43:16.111Z,4.03
2019-02-27T06:45:46.362Z,4.13
2019-02-27T06:48:15.440Z,4.53
2019-02-27T06:50:43.723Z,4.90
2019-02-27T06:53:15.528Z,5.37
2019-02-27T06:55:42.320Z,4.40
2019-02-27T06:58:14.799Z,4.23
2019-02-27T07:00:43.572Z,4.50
2019-02-27T07:03:11.870Z,4.00
2019-02-27T07:05:40.299Z,4.70
2019-02-27T07:08:08.737Z,4.20
2019-02-27T07:10:36.704Z,3.83
2019-02-27T07:13:04.355Z,3.30
2019-02-27T07:15:34.195Z,3.73
2019-02-27T07:18:03.491Z,4.47
2019-02-27T07:20:32.086Z,3.73
2019-02-27T07:23:00.278Z,4.90
2019-02-27T07:25:28.408Z,3.97
2019-02-27T07:27:58.350Z,4.27
2019-02-27T07:30:27.723Z,3.73
2019-02-27T07:32:55.844Z,4.63
2019-02-27T07:35:30.895Z,4.37
2019-02-27T07:37:59.448Z,5.47
2019-02-27T07:40:28.064Z,5.03
2019-02-27T07:42:56.446Z,5.03
2019-02-27T07:45:25.352Z,4.90
2019-02-27T07:47:55.068Z,4.40
2019-02-27T07:50:23.469Z,4.80
2019-02-27T07:52:52.222Z,4.30
2019-02-27T07:55:35.388Z,4.53
2019-02-27T07:58:03.115Z,4.47
2019-02-27T08:00:31.134Z,4.97
2019-02-27T08:03:09.826Z,4.13
2019-02-27T08:05:39.974Z,5.03
2019-02-27T08:08:07.646Z,5.70
2019-02-27T08:10:36.992Z,5.03
2019-02-27T08:13:06.924Z,5.00
2019-02-27T08:15:36.645Z,5.60
2019-02-27T08:18:06.657Z,5.17
2019-02-27T08:20:35.261Z,5.67
2019-02-27T08:23:03.220Z,4.80
2019-02-27T08:25:31.604Z,5.63
2019-02-27T08:28:00.697Z,5.20
2019-02-27T08:30:49.688Z,4.73
2019-02-27T08:33:23.986Z,5.37
2019-02-27T08:35:52.521Z,5.53
2019-02-27T08:38:23.440Z,5.50
2019-02-27T08:40:57.562Z,6.10
2019-02-27T08:43:24.160Z,4.90
2019-02-27T08:45:53.380Z,5.63
2019-02-27T08:48:21.480Z,6.73
2019-02-27T08:50:53.470Z,6.80
2019-02-27T08:53:25.857Z,5.57
2019-02-27T08:55:51.818Z,5.80
2019-02-27T08:58:20.635Z,5.43
2019-02-27T09:00:48.771Z,6.10
2019-02-27T09:03:20.267Z,6.10
2019-02-27T09:05:48.182Z,6.07
2019-02-27T09:08:18.917Z,6.70
2019-02-27T09:10:47.799Z,6.37
2019-02-27T09:13:16.483Z,6.30
2019-02-27T09:15:44.468Z,6.80
2019-02-27T09:18:13.047Z,6.70
2019-02-27T09:20:40.711Z,7.00
2019-02-27T09:23:08.779Z,7.40
2019-02-27T09:25:37.339Z,8.10
2019-02-27T09:28:08.991Z,8.47
2019-02-27T09:30:36.490Z,9.60
2019-02-27T09:33:04.575Z,8.93
2019-02-27T09:35:38.322Z,9.10
2019-02-27T09:38:03.466Z,8.23
2019-02-27T09:40:32.840Z,8.90
2019-02-27T09:43:00.815Z,9.63
2019-02-27T09:45:34.899Z,8.43
2019-02-27T09:48:04.039Z,8.70
2019-02-27T09:50:36.256Z,10.37
2019-02-27T09:53:05.020Z,9.23
2019-02-27T09:55:33.206Z,8.63
2019-02-27T09:58:01.079Z,8.60
2019-02-27T10:00:52.339Z,8.70
2019-02-27T10:03:21.421Z,8.90
2019-02-27T10:05:49.935Z,8.83
2019-02-27T10:08:19.811Z,8.60
2019-02-27T10:10:48.646Z,8.77
2019-02-27T10:13:16.432Z,9.10
2019-02-27T10:15:44.880Z,9.03
2019-02-27T10:18:13.019Z,8.83
2019-02-27T10:20:41.047Z,8.83
2019-02-27T10:23:09.504Z,9.10
2019-02-27T10:25:37.713Z,9.67
2019-02-27T10:28:06.485Z,9.13
2019-02-27T10:30:34.958Z,9.53
2019-02-27T10:33:03.565Z,9.80
2019-02-27T10:35:34.969Z,10.07
2019-02-27T10:38:02.458Z,8.93
2019-02-27T10:40:30.413Z,9.47
2019-02-27T10:42:59.009Z,11.20
2019-02-27T10:45:26.715Z,11.43
2019-02-27T10:47:55.530Z,9.50
2019-02-27T10:50:24.397Z,10.70
2019-02-27T10:52:52.060Z,11.83
2019-02-27T10:55:20.182Z,10.67
2019-02-27T10:57:48.154Z,11.30
2019-02-27T11:00:24.898Z,10.10
2019-02-27T11:02:52.580Z,10.87
2019-02-27T11:05:20.991Z,10.80
2019-02-27T11:07:50.112Z,11.10
2019-02-27T11:10:19.541Z,11.93
2019-02-27T11:12:47.868Z,11.97
2019-02-27T11:15:17.312Z,11.60
2019-02-27T11:17:45.851Z,11.20
2019-02-27T11:20:20.416Z,12.50
2019-02-27T11:22:45.428Z,12.40
2019-02-27T11:25:15.358Z,11.90
2019-02-27T11:27:43.784Z,12.00
2019-02-27T11:30:24.766Z,12.23
2019-02-27T11:32:57.780Z,11.77
2019-02-27T11:35:26.022Z,10.90
2019-02-27T11:37:54.462Z,12.70
2019-02-27T11:40:23.184Z,12.07
2019-02-27T11:42:51.101Z,12.60
2019-02-27T11:45:23.728Z,12.77
2019-02-27T11:47:49.310Z,13.07
2019-02-27T11:50:17.911Z,11.80
2019-02-27T11:52:49.055Z,12.10
2019-02-27T11:55:16.726Z,11.87
2019-02-27T11:57:44.857Z,11.63
2019-02-27T12:00:18.007Z,12.40
2019-02-27T12:02:46.783Z,12.10
2019-02-27T12:05:15.335Z,13.00
2019-02-27T12:07:43.034Z,12.63
2019-02-27T12:10:13.517Z,12.63
2019-02-27T12:12:41.220Z,12.27
2019-02-27T12:15:10.142Z,12.87
2019-02-27T12:17:38.687Z,12.93
2019-02-27T12:20:07.490Z,12.17
2019-02-27T12:22:35.987Z,12.03
2019-02-27T12:25:05.022Z,13.43
2019-02-27T12:27:48.356Z,42.13
2019-02-27T12:30:04.673Z,14.10
2019-02-27T12:32:32.644Z,11.73
2019-02-27T12:35:03.131Z,14.50
2019-02-27T12:43:17.409Z,14.53
2019-02-27T12:45:42.786Z,13.13
2019-02-27T12:48:12.577Z,12.87
2019-02-27T12:50:41.704Z,11.03
2019-02-27T12:53:09.481Z,13.20
2019-02-27T12:55:37.693Z,14.60
2019-02-27T12:58:06.353Z,12.27
2019-02-27T13:00:35.508Z,13.70
2019-02-27T13:03:08.387Z,12.03
2019-02-27T13:05:33.603Z,12.37
2019-02-27T13:08:02.892Z,13.50
2019-02-27T13:10:34.159Z,12.27
2019-02-27T13:13:00.625Z,11.33
2019-02-27T13:15:28.926Z,11.53
2019-02-27T13:17:57.963Z,13.50
2019-02-27T13:20:26.231Z,12.53
2019-02-27T13:22:53.942Z,12.27
2019-02-27T13:25:24.102Z,11.63
2019-02-27T13:27:51.941Z,12.60
2019-02-27T13:30:19.927Z,11.50
2019-02-27T13:32:48.558Z,11.77
2019-02-27T13:35:20.075Z,12.40
2019-02-27T13:37:48.371Z,11.80
2019-02-27T13:40:17.919Z,14.27
2019-02-27T13:42:46.906Z,13.10
2019-02-27T13:45:17.129Z,13.43
2019-02-27T13:47:45.212Z,12.40
2019-02-27T13:50:16.730Z,13.77
2019-02-27T13:52:49.903Z,13.87
2019-02-27T13:55:17.451Z,13.80
2019-02-27T13:57:45.164Z,14.57
2019-02-27T14:00:20.355Z,12.50
2019-02-27T14:02:48.565Z,13.47
2019-02-27T14:05:17.463Z,12.10
2019-02-27T14:07:46.375Z,12.00
2019-02-27T14:10:17.114Z,13.93
2019-02-27T14:12:44.659Z,13.27
2019-02-27T14:15:13.523Z,12.60
2019-02-27T14:17:42.482Z,12.80
2019-02-27T14:20:13.089Z,12.83
2019-02-27T14:22:41.763Z,11.90
2019-02-27T14:25:12.029Z,12.80
2019-02-27T14:27:47.234Z,11.57
2019-02-27T14:30:18.230Z,11.40
2019-02-27T14:32:47.348Z,11.13
2019-02-27T14:35:15.740Z,11.80
2019-02-27T14:37:49.543Z,11.53
2019-02-27T14:40:17.767Z,12.60
2019-02-27T14:42:46.038Z,12.80
2019-02-27T14:45:15.192Z,11.90
2019-02-27T14:47:43.665Z,12.27
2019-02-27T14:50:13.854Z,11.87
2019-02-27T14:52:45.151Z,11.40
2019-02-27T14:55:12.885Z,13.00
2019-02-27T14:57:41.285Z,11.00
2019-02-27T15:00:24.554Z,10.60
2019-02-27T15:02:55.617Z,10.57
2019-02-27T15:05:23.263Z,12.37
2019-02-27T15:07:53.643Z,10.47
2019-02-27T15:10:23.982Z,9.83
2019-02-27T15:12:54.968Z,9.20
2019-02-27T15:15:24.311Z,9.93
2019-02-27T15:17:52.014Z,10.73
2019-02-27T15:20:20.764Z,11.43
2019-02-27T15:22:48.726Z,10.60
2019-02-27T15:25:16.859Z,12.00
2019-02-27T15:27:45.686Z,11.67
2019-02-27T15:30:16.352Z,10.10
2019-02-27T15:32:44.523Z,12.23
2019-02-27T15:35:15.590Z,10.77
2019-02-27T15:37:43.961Z,10.50
2019-02-27T15:40:14.008Z,10.07
2019-02-27T15:42:42.703Z,11.40
2019-02-27T15:45:11.545Z,11.00
2019-02-27T15:47:40.879Z,11.97
2019-02-27T15:50:09.872Z,11.97
2019-02-27T15:52:40.689Z,11.07
2019-02-27T15:55:08.647Z,11.37
2019-02-27T15:57:36.509Z,10.27
2019-02-27T16:00:05.503Z,15.37
2019-02-27T16:02:34.124Z,9.53
2019-02-27T16:05:06.135Z,12.20
2019-02-27T16:07:35.770Z,11.50
2019-02-27T16:10:08.006Z,12.90
2019-02-27T16:12:35.486Z,10.87
2019-02-27T16:15:04.068Z,10.27
2019-02-27T16:17:32.279Z,10.83
2019-02-27T16:20:00.740Z,10.37
2019-02-27T16:22:31.391Z,11.13
2019-02-27T16:24:59.531Z,10.57
2019-02-27T16:27:27.228Z,11.23
2019-02-27T16:29:58.185Z,10.00
2019-02-27T16:32:33.121Z,10.00
2019-02-27T16:35:04.298Z,12.70
2019-02-27T16:37:34.617Z,11.10
2019-02-27T16:40:03.133Z,11.47
2019-02-27T16:42:31.685Z,10.13
2019-02-27T16:45:01.888Z,12.07
2019-02-27T16:47:30.403Z,11.67
2019-02-27T16:49:59.086Z,10.53
2019-02-27T16:52:27.264Z,9.77
2019-02-27T16:55:00.743Z,12.07
2019-02-27T16:57:27.140Z,10.90
2019-02-27T16:59:58.936Z,12.30
2019-02-27T17:02:27.750Z,11.07
2019-02-27T17:04:56.172Z,11.43
2019-02-27T17:07:26.047Z,13.00
2019-02-27T17:09:56.337Z,11.00
2019-02-27T17:12:25.262Z,10.60
2019-02-27T17:14:55.428Z,10.87
2019-02-27T17:17:27.115Z,10.70
2019-02-27T17:19:56.185Z,10.23
2019-02-27T17:22:24.857Z,11.00
2019-02-27T17:24:56.225Z,10.00
2019-02-27T17:27:25.797Z,10.17
2019-02-27T17:29:53.566Z,12.80
2019-02-27T17:32:20.901Z,13.90
2019-02-27T17:34:49.382Z,11.60
2019-02-27T17:37:17.896Z,13.03
2019-02-27T17:39:45.671Z,10.50
2019-02-27T17:42:18.489Z,9.83
2019-02-27T17:44:46.957Z,8.80
2019-02-27T17:47:15.267Z,10.93
2019-02-27T17:49:43.232Z,8.77
2019-02-27T17:52:11.491Z,9.70
2019-02-27T17:54:42.414Z,9.60
2019-02-27T17:57:10.108Z,9.33
2019-02-27T17:59:39.117Z,8.97
2019-02-27T18:02:08.443Z,8.50
2019-02-27T18:04:36.632Z,9.97
2019-02-27T18:07:06.240Z,9.47
2019-02-27T18:09:40.401Z,8.20
2019-02-27T18:12:09.830Z,9.53
2019-02-27T18:14:43.846Z,9.40
2019-02-27T18:17:10.720Z,10.27
2019-02-27T18:19:38.981Z,9.87
2019-02-27T18:22:06.808Z,9.90
2019-02-27T18:24:34.733Z,8.33
2019-02-27T18:27:05.475Z,9.97
2019-02-27T18:29:34.197Z,9.87
2019-02-27T18:32:06.372Z,9.60
2019-02-27T18:34:33.652Z,10.77
2019-02-27T18:37:01.977Z,8.47
2019-02-27T18:39:30.436Z,9.07
2019-02-27T18:41:58.132Z,10.57
2019-02-27T18:44:27.283Z,9.27
2019-02-27T18:46:56.218Z,8.50
2019-02-27T18:49:26.309Z,9.90
2019-02-27T18:51:55.780Z,8.20
2019-02-27T18:54:25.233Z,9.00
2019-02-27T18:56:52.822Z,8.70
2019-02-27T18:59:20.620Z,8.80
2019-02-27T19:01:48.766Z,8.67
2019-02-27T19:04:16.344Z,9.60
2019-02-27T19:06:46.152Z,9.87
2019-02-27T19:09:14.850Z,10.83
2019-02-27T19:11:43.764Z,9.80
2019-02-27T19:14:11.487Z,9.90
2019-02-27T19:16:39.676Z,10.00
2019-02-27T19:19:07.050Z,10.03
2019-02-27T19:21:36.127Z,10.30
2019-02-27T19:24:04.327Z,11.47
2019-02-27T19:26:32.455Z,10.20
2019-02-27T19:29:00.533Z,9.53
2019-02-27T19:31:28.344Z,10.50
2019-02-27T19:33:56.953Z,11.13
2019-02-27T19:36:34.607Z,9.40
2019-02-27T19:39:04.579Z,9.73
2019-02-27T19:41:38.716Z,9.83
2019-02-27T19:44:03.206Z,10.00
2019-02-27T19:46:31.271Z,9.03
2019-02-27T19:49:00.837Z,10.40
2019-02-27T19:51:28.995Z,10.07
2019-02-27T19:53:56.733Z,10.23
2019-02-27T19:56:25.983Z,9.20
2019-02-27T19:58:53.837Z,9.90
2019-02-27T20:01:22.389Z,10.00
2019-02-27T20:03:50.762Z,9.50
2019-02-27T20:06:19.222Z,10.17
2019-02-27T20:08:47.445Z,8.23
2019-02-27T20:11:15.190Z,10.77
2019-02-27T20:13:42.779Z,8.97
2019-02-27T20:16:11.471Z,9.80
2019-02-27T20:18:40.558Z,10.70
2019-02-27T20:21:10.506Z,11.90
2019-02-27T20:23:40.712Z,11.37
2019-02-27T20:26:14.121Z,9.50
2019-02-27T20:28:38.973Z,14.30
2019-02-27T20:31:06.941Z,9.43
2019-02-27T20:33:37.318Z,10.27
2019-02-27T20:36:04.032Z,10.10
2019-02-27T20:38:32.182Z,12.83
2019-02-27T20:41:00.155Z,10.30
2019-02-27T20:43:29.422Z,8.80
2019-02-27T20:45:58.354Z,10.47
2019-02-27T20:48:26.959Z,9.97
2019-02-27T20:50:56.032Z,7.90
2019-02-27T20:53:43.402Z,9.10
2019-02-27T20:56:12.884Z,7.50
2019-02-27T20:58:41.939Z,8.17
2019-02-27T21:01:13.949Z,7.50
2019-02-27T21:03:42.031Z,7.33
2019-02-27T21:06:12.795Z,8.27
2019-02-27T21:08:41.646Z,7.57
2019-02-27T21:11:10.630Z,6.80
2019-02-27T21:13:39.029Z,6.90
2019-02-27T21:16:09.325Z,7.17
2019-02-27T21:18:37.517Z,7.17
2019-02-27T21:21:05.397Z,6.60
2019-02-27T21:23:36.419Z,8.13
2019-02-27T21:26:05.884Z,6.63
2019-02-27T21:28:34.207Z,7.60
2019-02-27T21:31:07.973Z,10.90
2019-02-27T21:33:36.404Z,7.67
2019-02-27T21:36:04.574Z,6.90
2019-02-27T21:38:33.029Z,7.00
2019-02-27T21:41:00.965Z,6.43
2019-02-27T21:43:30.351Z,5.70
2019-02-27T21:45:58.834Z,6.83
2019-02-27T21:48:26.905Z,6.33
2019-02-27T21:50:57.909Z,5.97
2019-02-27T21:53:29.719Z,4.80
2019-02-27T21:55:58.632Z,6.07
2019-02-27T21:58:31.966Z,6.10
2019-02-27T22:00:57.349Z,6.27
2019-02-27T22:03:25.717Z,5.87
2019-02-27T22:05:54.121Z,5.83
2019-02-27T22:08:25.160Z,5.87
2019-02-27T22:10:56.279Z,4.53
2019-02-27T22:13:29.496Z,5.40
2019-02-27T22:15:56.663Z,4.50
2019-02-27T22:18:25.663Z,4.53
2019-02-27T22:20:59.519Z,6.10
2019-02-27T22:23:25.428Z,5.10
2019-02-27T22:25:54.304Z,5.97
2019-02-27T22:28:25.818Z,5.60
2019-02-27T22:30:54.188Z,6.10
2019-02-27T22:33:24.271Z,5.87
2019-02-27T22:35:52.889Z,5.30
2019-02-27T22:38:25.678Z,7.23
2019-02-27T22:40:51.062Z,6.50
2019-02-27T22:43:21.546Z,6.00
2019-02-27T22:45:49.322Z,5.67
2019-02-27T22:48:17.351Z,5.43
2019-02-27T22:50:45.727Z,6.70
2019-02-27T22:53:13.793Z,6.20
2019-02-27T22:55:43.172Z,5.60
2019-02-27T22:58:11.361Z,5.37
2019-02-27T23:01:00.973Z,5.87
2019-02-27T23:03:30.437Z,5.80
2019-02-27T23:06:00.080Z,5.10
2019-02-27T23:08:28.222Z,5.50
2019-02-27T23:10:57.194Z,4.80
2019-02-27T23:13:47.508Z,6.20
2019-02-27T23:16:14.863Z,5.43
2019-02-27T23:18:42.942Z,5.30
2019-02-27T23:21:11.412Z,4.70
2019-02-27T23:23:39.101Z,5.00
2019-02-27T23:26:07.148Z,4.90
2019-02-27T23:28:35.518Z,4.67
2019-02-27T23:31:04.020Z,4.40
2019-02-27T23:33:35.826Z,4.77
2019-02-27T23:36:02.380Z,4.80
2019-02-27T23:38:34.663Z,4.63
2019-02-27T23:41:02.723Z,4.20
2019-02-27T23:43:34.013Z,3.80
2019-02-27T23:46:00.971Z,4.03
2019-02-27T23:48:29.831Z,4.00
2019-02-27T23:50:58.115Z,4.30
2019-02-27T23:53:27.096Z,4.50
2019-02-27T23:55:56.290Z,4.67
2019-02-27T23:58:23.978Z,4.33
